Time;durP1;ratioP1;P1;durP2;ratioP2;P2;SDS_P1;SDS_P2;PMS_P1;PMS_P2;Temp;Humidity;BMP_temperature;BMP_pressure;BME280_temperature;BME280_humidity;BME280_pressure;Samples;Min_cycle;Max_cycle;Signal;HPM_P1;HPM_P2
2022/04/12 00:00:33;;;;;;;3.17;2.97;;;3.40;99.90;;;;;;5033491;28;20449;-64
2022/04/12 00:02:59;;;;;;;3.83;2.77;;;3.30;99.90;;;;;;5033986;28;20414;-68
2022/04/12 00:05:25;;;;;;;5.60;2.93;;;3.30;99.90;;;;;;5034012;28;20409;-68
2022/04/12 00:07:51;;;;;;;3.27;2.80;;;3.30;99.90;;;;;;5033926;28;20289;-69
2022/04/12 00:10:16;;;;;;;3.13;2.30;;;3.30;99.90;;;;;;5033007;28;20787;-69
2022/04/12 00:12:43;;;;;;;3.37;3.17;;;3.30;99.90;;;;;;5033914;28;20584;-67
2022/04/12 00:15:09;;;;;;;7.37;3.07;;;3.30;99.90;;;;;;5033997;28;20390;-68
2022/04/12 00:20:21;;;;;;;3.23;2.93;;;3.20;99.90;;;;;;5033385;28;20448;-64
2022/04/12 00:22:47;;;;;;;2.57;2.37;;;3.20;99.90;;;;;;5033603;28;20418;-64
2022/04/12 00:25:13;;;;;;;5.13;2.80;;;3.20;99.90;;;;;;5033782;28;20403;-68
2022/04/12 00:27:41;;;;;;;3.97;3.43;;;3.20;99.90;;;;;;5033690;28;20575;-68
2022/04/12 00:30:09;;;;;;;4.40;2.90;;;3.20;99.90;;;;;;5033000;28;20398;-67
2022/04/12 00:32:35;;;;;;;3.50;3.20;;;3.20;99.90;;;;;;5033064;28;20460;-64
2022/04/12 00:35:01;;;;;;;3.50;3.30;;;3.20;99.90;;;;;;5033701;28;20399;-64
2022/04/12 00:37:27;;;;;;;3.30;3.00;;;3.20;99.90;;;;;;5033497;28;20399;-67
2022/04/12 00:39:54;;;;;;;7.17;4.17;;;3.20;99.90;;;;;;5032850;28;20442;-64
2022/04/12 00:42:20;;;;;;;3.83;3.40;;;3.20;99.90;;;;;;5033303;28;20417;-67
2022/04/12 00:44:46;;;;;;;3.27;2.30;;;3.20;99.90;;;;;;5033379;28;20481;-64
2022/04/12 00:47:12;;;;;;;3.67;2.63;;;3.20;99.90;;;;;;5032415;28;20485;-63
2022/04/12 00:49:37;;;;;;;8.20;3.87;;;3.20;99.90;;;;;;5032771;28;20835;-64
2022/04/12 00:52:04;;;;;;;2.80;2.60;;;3.20;99.90;;;;;;5033189;28;20184;-64
2022/04/12 00:54:33;;;;;;;3.10;2.90;;;3.20;99.90;;;;;;5033018;28;20257;-64
2022/04/12 00:56:59;;;;;;;4.40;3.07;;;3.20;99.90;;;;;;5033581;28;20402;-63
2022/04/12 00:59:26;;;;;;;3.07;2.87;;;3.20;99.90;;;;;;5032732;28;20391;-63
2022/04/12 01:01:52;;;;;;;3.27;2.67;;;3.20;99.90;;;;;;5033163;28;20479;-68
2022/04/12 01:04:19;;;;;;;3.57;2.53;;;3.20;99.90;;;;;;5033236;28;20741;-64
2022/04/12 01:06:45;;;;;;;5.10;3.30;;;3.20;99.90;;;;;;5033087;28;20406;-68
2022/04/12 01:09:12;;;;;;;5.40;2.83;;;3.20;99.90;;;;;;5032582;28;20434;-64
2022/04/12 01:11:39;;;;;;;2.33;2.13;;;3.20;99.90;;;;;;5033229;28;20840;-68
2022/04/12 01:14:06;;;;;;;7.50;2.97;;;3.20;99.90;;;;;;5033244;28;20450;-68
2022/04/12 01:16:31;;;;;;;2.77;2.57;;;3.20;99.90;;;;;;5033209;28;20395;-65
2022/04/12 01:18:57;;;;;;;4.97;2.87;;;3.10;99.90;;;;;;5032533;28;20530;-63
2022/04/12 01:21:23;;;;;;;6.23;3.70;;;3.10;99.90;;;;;;5033000;28;20195;-68
2022/04/12 01:24:05;;;;;;;3.43;3.17;;;3.10;99.90;;;;;;5033187;28;20636;-67
2022/04/12 01:26:32;;;;;;;3.90;2.87;;;3.10;99.90;;;;;;5033157;28;20218;-68
2022/04/12 01:28:58;;;;;;;6.10;2.80;;;3.10;99.90;;;;;;5032394;28;20495;-64
2022/04/12 01:31:25;;;;;;;4.80;2.60;;;3.10;99.90;;;;;;5032966;28;20903;-64
2022/04/12 01:33:52;;;;;;;3.47;2.63;;;3.10;99.90;;;;;;5033045;28;21030;-68
2022/04/12 01:36:17;;;;;;;3.63;2.50;;;3.10;99.90;;;;;;5033016;28;20436;-67
2022/04/12 01:38:43;;;;;;;5.70;3.00;;;3.10;99.90;;;;;;5032208;28;20399;-69
2022/04/12 01:41:09;;;;;;;5.40;3.73;;;3.10;99.90;;;;;;5032803;28;20175;-64
2022/04/12 01:43:34;;;;;;;3.00;2.80;;;3.00;99.90;;;;;;5032938;28;20171;-63
2022/04/12 01:46:00;;;;;;;2.97;2.77;;;3.00;99.90;;;;;;5036060;28;20168;-64
2022/04/12 01:48:26;;;;;;;3.37;3.07;;;3.00;99.90;;;;;;5036492;28;20188;-68
2022/04/12 01:50:52;;;;;;;9.03;2.53;;;3.00;99.90;;;;;;5035904;28;20215;-63
2022/04/12 01:53:17;;;;;;;3.00;2.80;;;3.00;99.90;;;;;;5036323;28;20195;-67
2022/04/12 01:55:43;;;;;;;3.53;2.83;;;3.00;99.90;;;;;;5036493;28;20399;-67
2022/04/12 01:58:09;;;;;;;2.67;2.30;;;3.00;99.90;;;;;;5036342;28;20629;-68
2022/04/12 02:00:36;;;;;;;6.40;2.90;;;3.00;99.90;;;;;;5035661;28;20203;-69
2022/04/12 02:03:02;;;;;;;4.10;3.20;;;3.00;99.90;;;;;;5036029;28;20233;-67
2022/04/12 02:05:28;;;;;;;3.97;2.57;;;3.00;99.90;;;;;;5036390;28;20764;-64
2022/04/12 02:07:54;;;;;;;2.97;2.47;;;3.00;99.90;;;;;;5036341;28;20436;-67
2022/04/12 02:10:21;;;;;;;3.23;3.03;;;3.10;99.90;;;;;;5035508;28;20187;-68
2022/04/12 02:12:47;;;;;;;2.60;2.40;;;3.10;99.90;;;;;;5035909;28;20195;-66
2022/04/12 02:15:13;;;;;;;3.60;3.33;;;3.10;99.90;;;;;;5036137;28;20879;-69
2022/04/12 02:17:38;;;;;;;3.50;2.53;;;3.20;99.90;;;;;;5036417;28;20485;-67
2022/04/12 02:20:05;;;;;;;3.20;2.63;;;3.20;99.90;;;;;;5035420;28;20191;-64
2022/04/12 02:22:30;;;;;;;3.13;2.80;;;3.20;99.90;;;;;;5035876;28;20180;-64
2022/04/12 02:24:56;;;;;;;5.13;2.83;;;3.20;99.90;;;;;;5034685;28;21037;-64
2022/04/12 02:27:21;;;;;;;2.90;2.70;;;3.20;99.90;;;;;;5035728;28;20171;-68
2022/04/12 02:29:47;;;;;;;4.20;2.60;;;3.30;99.90;;;;;;5033914;28;20172;-68
2022/04/12 02:32:13;;;;;;;5.33;3.97;;;3.30;99.90;;;;;;5034520;28;20667;-64
2022/04/12 02:34:38;;;;;;;3.27;3.07;;;3.40;99.90;;;;;;5035770;28;20271;-64
2022/04/12 02:37:04;;;;;;;5.23;3.10;;;3.40;99.90;;;;;;5035709;28;20194;-64
2022/04/12 02:39:30;;;;;;;3.60;2.83;;;3.40;99.90;;;;;;5034935;28;20199;-68
2022/04/12 02:41:55;;;;;;;5.53;3.40;;;3.40;99.90;;;;;;5034524;28;20453;-63
2022/04/12 02:44:21;;;;;;;4.00;3.70;;;3.40;99.90;;;;;;5035630;28;20575;-64
2022/04/12 02:46:46;;;;;;;2.73;2.53;;;3.50;99.90;;;;;;5035505;28;20169;-64
2022/04/12 02:49:12;;;;;;;3.20;2.20;;;3.40;99.90;;;;;;5034740;28;20163;-64
2022/04/12 02:51:38;;;;;;;2.97;2.77;;;3.40;99.90;;;;;;5034262;28;20278;-67
2022/04/12 02:54:03;;;;;;;4.13;3.30;;;3.40;99.90;;;;;;5035357;28;20202;-68
2022/04/12 02:56:29;;;;;;;2.83;2.63;;;3.40;99.90;;;;;;5035170;28;20170;-68
2022/04/12 02:58:55;;;;;;;2.80;2.60;;;3.40;99.90;;;;;;5034594;28;20706;-69
2022/04/12 03:01:20;;;;;;;3.37;3.17;;;3.40;99.90;;;;;;5035032;28;20156;-67
2022/04/12 03:03:46;;;;;;;3.70;3.40;;;3.40;99.90;;;;;;5035133;28;20177;-64
2022/04/12 03:06:11;;;;;;;3.47;3.17;;;3.40;99.90;;;;;;5035419;28;20525;-68
2022/04/12 03:08:37;;;;;;;10.63;3.37;;;3.40;99.90;;;;;;5034413;28;20175;-68
2022/04/12 03:11:03;;;;;;;3.37;2.93;;;3.40;99.90;;;;;;5035042;28;20172;-63
2022/04/12 03:13:28;;;;;;;3.77;2.67;;;3.40;99.90;;;;;;5034739;28;20203;-69
2022/04/12 03:15:54;;;;;;;3.63;2.97;;;3.40;99.90;;;;;;5035295;28;20194;-64
2022/04/12 03:18:20;;;;;;;2.90;2.70;;;3.50;99.90;;;;;;5035058;28;20509;-68
2022/04/12 03:20:46;;;;;;;3.30;3.03;;;3.60;99.90;;;;;;5034343;28;20403;-67
2022/04/12 03:23:11;;;;;;;3.00;2.70;;;3.60;99.90;;;;;;5034878;28;20184;-68
2022/04/12 03:25:38;;;;;;;6.03;3.20;;;3.60;99.90;;;;;;5034748;28;20172;-64
2022/04/12 03:28:04;;;;;;;2.93;2.73;;;3.70;99.90;;;;;;5034791;28;20164;-67
2022/04/12 03:30:30;;;;;;;3.00;2.80;;;3.70;99.90;;;;;;5033999;28;20924;-67
2022/04/12 03:32:55;;;;;;;4.03;3.07;;;3.70;99.90;;;;;;5034537;28;20200;-68
2022/04/12 03:35:21;;;;;;;6.20;2.87;;;3.70;99.90;;;;;;5034616;28;20166;-68
2022/04/12 03:37:48;;;;;;;5.97;3.77;;;3.80;99.90;;;;;;5034535;28;20171;-64
2022/04/12 03:40:14;;;;;;;6.43;2.90;;;3.80;99.90;;;;;;5033924;28;20441;-61
2022/04/12 03:42:39;;;;;;;3.57;2.73;;;3.80;99.90;;;;;;5034343;28;20446;-62
2022/04/12 03:45:06;;;;;;;5.40;3.77;;;3.80;99.90;;;;;;5033102;28;20407;-63
2022/04/12 03:47:31;;;;;;;2.80;2.60;;;3.90;99.90;;;;;;5034400;28;20716;-67
2022/04/12 03:49:57;;;;;;;4.67;3.17;;;3.90;99.90;;;;;;5033603;28;20497;-63
2022/04/12 03:52:22;;;;;;;5.37;2.93;;;3.90;99.90;;;;;;5034281;28;20191;-67
2022/04/12 03:54:48;;;;;;;4.93;3.37;;;3.90;99.90;;;;;;5034289;28;20176;-66
2022/04/12 03:57:14;;;;;;;7.13;2.47;;;4.00;99.90;;;;;;5034161;28;20164;-65
2022/04/12 03:59:40;;;;;;;5.20;3.43;;;4.00;99.90;;;;;;5033481;28;20162;-64
2022/04/12 04:02:05;;;;;;;3.00;2.70;;;3.90;99.90;;;;;;5033955;28;20426;-63
2022/04/12 04:04:31;;;;;;;3.17;2.47;;;4.00;99.90;;;;;;5034224;28;20532;-67
2022/04/12 04:06:57;;;;;;;5.10;2.90;;;3.90;99.90;;;;;;5033526;28;20195;-64
2022/04/12 04:09:23;;;;;;;2.80;2.60;;;3.90;99.90;;;;;;5033271;28;20549;-68
2022/04/12 04:11:48;;;;;;;3.13;2.83;;;4.00;99.90;;;;;;5032696;28;20281;-64
2022/04/12 04:14:15;;;;;;;3.63;2.30;;;3.90;99.90;;;;;;5033843;28;20525;-64
2022/04/12 04:16:41;;;;;;;3.43;3.00;;;3.90;99.90;;;;;;5033950;28;20160;-63
2022/04/12 04:19:09;;;;;;;3.90;2.67;;;4.00;99.90;;;;;;5033297;28;20400;-63
2022/04/12 04:21:38;;;;;;;2.63;2.43;;;4.00;99.90;;;;;;5033829;28;20415;-64
2022/04/12 04:24:04;;;;;;;3.00;2.80;;;3.90;99.90;;;;;;5033836;28;20421;-64
2022/04/12 04:26:30;;;;;;;9.53;3.40;;;3.90;99.90;;;;;;5033546;28;20405;-68
2022/04/12 04:28:56;;;;;;;11.23;3.10;;;4.00;99.90;;;;;;5033031;28;20408;-64
2022/04/12 04:31:21;;;;;;;3.53;3.23;;;3.90;99.90;;;;;;5033575;28;20796;-66
2022/04/12 04:33:47;;;;;;;4.73;3.50;;;4.00;99.90;;;;;;5032286;28;20199;-66
2022/04/12 04:36:13;;;;;;;3.40;2.83;;;3.90;99.90;;;;;;5033520;28;20647;-63
2022/04/12 04:38:39;;;;;;;4.67;3.13;;;4.00;99.90;;;;;;5031889;28;20451;-64
2022/04/12 04:41:04;;;;;;;7.63;3.10;;;4.00;99.90;;;;;;5032414;28;20218;-64
2022/04/12 04:43:30;;;;;;;5.13;3.23;;;4.10;99.90;;;;;;5033393;28;20211;-66
2022/04/12 04:45:56;;;;;;;3.97;2.77;;;4.10;99.90;;;;;;5033424;28;20234;-64
2022/04/12 04:48:21;;;;;;;3.40;2.83;;;4.20;99.90;;;;;;5031996;28;20175;-62
2022/04/12 04:50:48;;;;;;;3.73;2.90;;;4.20;99.90;;;;;;5032819;28;20172;-69
2022/04/12 04:53:14;;;;;;;3.03;2.83;;;4.30;99.90;;;;;;5033184;28;20206;-68
2022/04/12 04:55:42;;;;;;;4.03;2.80;;;4.20;99.90;;;;;;5033219;28;20402;-64
2022/04/12 04:58:08;;;;;;;4.00;3.70;;;4.30;99.90;;;;;;5033266;28;20161;-67
2022/04/12 05:00:34;;;;;;;3.73;3.43;;;4.40;99.90;;;;;;5032602;28;20733;-64
2022/04/12 05:03:01;;;;;;;3.10;2.90;;;4.30;99.90;;;;;;5033158;28;20744;-61
2022/04/12 05:05:27;;;;;;;3.23;2.83;;;4.30;99.90;;;;;;5033407;28;20814;-65
2022/04/12 05:07:54;;;;;;;3.60;3.40;;;4.40;99.90;;;;;;5032095;28;20911;-66
2022/04/12 05:10:22;;;;;;;3.53;2.87;;;4.40;99.90;;;;;;5032261;28;20434;-62
2022/04/12 05:12:48;;;;;;;3.13;2.60;;;4.50;99.90;;;;;;5032864;28;20458;-65
2022/04/12 05:15:15;;;;;;;2.87;2.63;;;4.50;99.90;;;;;;5031888;28;20404;-61
2022/04/12 05:17:46;;;;;;;3.00;2.80;;;4.50;99.90;;;;;;5033220;28;20869;-61
2022/04/12 05:20:12;;;;;;;6.83;3.80;;;4.50;99.90;;;;;;5034415;28;20909;-66
2022/04/12 05:22:38;;;;;;;9.87;3.77;;;4.50;99.90;;;;;;5036853;28;20429;-65
2022/04/12 05:25:04;;;;;;;7.20;3.10;;;4.50;99.90;;;;;;5035826;28;20173;-65
2022/04/12 05:27:36;;;;;;;3.57;3.20;;;4.60;99.90;;;;;;5036939;28;20510;-65
2022/04/12 05:30:04;;;;;;;3.43;3.20;;;4.60;99.90;;;;;;5036354;28;20398;-61
2022/04/12 05:32:29;;;;;;;3.53;3.23;;;4.70;99.90;;;;;;5036479;28;20429;-62
2022/04/12 05:34:55;;;;;;;2.73;2.53;;;4.70;99.90;;;;;;5036824;28;20421;-65
2022/04/12 05:37:21;;;;;;;4.60;4.03;;;4.80;99.90;;;;;;5036581;28;20624;-65
2022/04/12 05:39:47;;;;;;;4.83;3.40;;;4.80;99.90;;;;;;5034749;28;20173;-65
2022/04/12 05:42:13;;;;;;;3.80;3.50;;;4.90;99.90;;;;;;5036647;28;20425;-62
2022/04/12 05:44:38;;;;;;;4.83;4.13;;;5.00;99.90;;;;;;5036524;28;20774;-63
2022/04/12 05:47:04;;;;;;;4.60;4.17;;;5.10;99.90;;;;;;5035426;28;20633;-67
2022/04/12 05:49:31;;;;;;;5.03;3.73;;;5.10;99.90;;;;;;5035905;28;20186;-67
2022/04/12 05:51:57;;;;;;;7.70;3.40;;;5.30;99.90;;;;;;5018680;28;20458;-63
2022/04/12 05:54:23;;;;;;;4.05;3.28;;;5.40;99.90;;;;;;5035447;28;20507;-69
2022/04/12 05:56:50;;;;;;;6.10;4.33;;;5.50;99.90;;;;;;5036331;28;20580;-65
2022/04/12 05:59:16;;;;;;;5.27;4.63;;;5.60;99.90;;;;;;5035756;28;20519;-65
2022/04/12 06:01:41;;;;;;;5.63;4.63;;;5.70;99.90;;;;;;5036312;28;20421;-65
2022/04/12 06:04:07;;;;;;;4.50;4.10;;;5.80;99.90;;;;;;5036321;28;20259;-66
2022/04/12 06:06:33;;;;;;;8.73;4.43;;;5.80;99.90;;;;;;5036057;28;20633;-67
2022/04/12 06:09:00;;;;;;;5.70;4.73;;;5.90;99.90;;;;;;5035357;28;20421;-65
2022/04/12 06:11:26;;;;;;;4.97;4.60;;;6.00;99.90;;;;;;5036067;28;20514;-62
2022/04/12 06:13:52;;;;;;;5.10;4.47;;;6.10;99.90;;;;;;5036132;28;20526;-66
2022/04/12 06:16:18;;;;;;;5.13;4.47;;;6.20;99.90;;;;;;5036237;28;20460;-62
2022/04/12 06:18:44;;;;;;;6.53;4.37;;;6.30;99.90;;;;;;5034508;28;20406;-66
2022/04/12 06:21:09;;;;;;;4.57;4.13;;;6.40;99.90;;;;;;5034799;28;20163;-62
2022/04/12 06:23:35;;;;;;;3.80;3.60;;;6.40;99.90;;;;;;5036099;28;20405;-62
2022/04/12 06:26:01;;;;;;;5.20;4.50;;;6.40;99.90;;;;;;5036098;28;20175;-61
2022/04/12 06:28:26;;;;;;;5.63;4.23;;;6.50;99.90;;;;;;5034857;28;20230;-64
2022/04/12 06:30:54;;;;;;;5.30;3.80;;;6.60;99.90;;;;;;5034794;28;20175;-66
2022/04/12 06:33:19;;;;;;;3.83;3.40;;;6.70;99.90;;;;;;5035793;28;20267;-64
2022/04/12 06:35:45;;;;;;;4.10;3.70;;;6.70;99.90;;;;;;5035681;28;20403;-62
2022/04/12 06:38:11;;;;;;;4.57;4.20;;;6.80;99.90;;;;;;5035686;28;20552;-62
2022/04/12 06:40:38;;;;;;;4.90;4.13;;;6.90;99.90;;;;;;5033672;28;20183;-68
2022/04/12 06:43:04;;;;;;;5.13;4.17;;;6.90;99.90;;;;;;5035256;28;20179;-67
2022/04/12 06:45:29;;;;;;;5.80;4.00;;;7.00;99.90;;;;;;5035382;28;20813;-67
2022/04/12 06:47:58;;;;;;;6.57;4.00;;;7.00;99.90;;;;;;5035351;28;20179;-68
2022/04/12 06:50:24;;;;;;;3.93;3.63;;;7.10;99.90;;;;;;5034583;28;20717;-66
2022/04/12 06:52:50;;;;;;;6.70;4.07;;;7.20;99.90;;;;;;5034983;28;20483;-63
2022/04/12 06:55:16;;;;;;;5.23;4.73;;;7.20;99.90;;;;;;5035060;28;20612;-64
2022/04/12 06:57:42;;;;;;;7.63;3.80;;;7.30;99.90;;;;;;5035208;28;20402;-68
2022/04/12 07:00:09;;;;;;;11.47;3.80;;;7.40;99.90;;;;;;5034406;28;20395;-68
2022/04/12 07:02:35;;;;;;;5.40;3.73;;;7.40;99.90;;;;;;5034843;28;20493;-64
2022/04/12 07:05:02;;;;;;;6.43;3.70;;;7.50;99.90;;;;;;5034936;28;20469;-68
2022/04/12 07:07:28;;;;;;;3.97;3.53;;;7.50;99.90;;;;;;5034918;28;20910;-65
2022/04/12 07:09:55;;;;;;;4.20;3.80;;;7.60;99.90;;;;;;5034268;28;20425;-68
2022/04/12 07:12:20;;;;;;;3.60;3.30;;;7.60;99.90;;;;;;5034734;28;20192;-69
2022/04/12 07:14:46;;;;;;;5.27;3.70;;;7.70;99.90;;;;;;5034780;28;20481;-64
2022/04/12 07:17:12;;;;;;;3.50;3.30;;;7.80;99.90;;;;;;5034703;28;20226;-65
2022/04/12 07:19:37;;;;;;;3.70;3.40;;;7.80;99.90;;;;;;5033878;28;20502;-64
2022/04/12 07:22:04;;;;;;;3.80;3.50;;;7.90;99.90;;;;;;5034766;28;20192;-64
2022/04/12 07:24:30;;;;;;;7.40;4.83;;;8.00;99.90;;;;;;5035060;28;20168;-64
2022/04/12 07:26:56;;;;;;;4.50;4.07;;;8.10;99.90;;;;;;5034820;28;20416;-69
2022/04/12 07:29:22;;;;;;;4.50;4.07;;;8.20;99.90;;;;;;5034020;28;20411;-69
2022/04/12 07:31:47;;;;;;;5.63;3.23;;;8.30;99.90;;;;;;5034734;28;20564;-64
2022/04/12 07:34:13;;;;;;;4.00;3.60;;;8.40;99.90;;;;;;5034655;28;20611;-65
2022/04/12 07:36:43;;;;;;;4.90;4.10;;;8.50;99.90;;;;;;5034682;28;20189;-69
2022/04/12 07:39:09;;;;;;;4.47;4.10;;;8.60;99.90;;;;;;5033930;28;20189;-64
2022/04/12 07:41:35;;;;;;;6.87;4.30;;;8.70;99.90;;;;;;5033784;28;20788;-65
2022/04/12 07:44:01;;;;;;;4.20;3.80;;;8.70;99.90;;;;;;5033937;28;20406;-69
2022/04/12 07:46:26;;;;;;;4.10;3.70;;;8.80;99.90;;;;;;5032882;28;20191;-64
2022/04/12 07:48:52;;;;;;;6.10;3.73;;;8.90;99.90;;;;;;5033694;28;20411;-65
2022/04/12 07:51:18;;;;;;;3.80;3.50;;;9.00;99.90;;;;;;5034112;28;20180;-65
2022/04/12 07:53:43;;;;;;;4.07;3.73;;;9.00;99.90;;;;;;5033955;28;20206;-68
2022/04/12 07:56:09;;;;;;;4.13;3.73;;;9.00;99.90;;;;;;5034065;28;20505;-64
2022/04/12 07:58:35;;;;;;;5.47;3.60;;;9.00;99.90;;;;;;5033310;28;20176;-70
2022/04/12 08:01:00;;;;;;;19.17;4.43;;;9.10;99.90;;;;;;5032625;28;20168;-68
2022/04/12 08:03:26;;;;;;;5.33;4.37;;;9.10;99.90;;;;;;5033906;28;20203;-69
2022/04/12 08:05:52;;;;;;;6.97;4.03;;;9.20;99.90;;;;;;5033718;28;20268;-66
2022/04/12 08:08:18;;;;;;;6.43;4.60;;;9.20;99.90;;;;;;5033966;28;20265;-65
2022/04/12 08:10:44;;;;;;;4.13;3.83;;;9.30;99.90;;;;;;5033272;28;20194;-65
2022/04/12 08:13:10;;;;;;;10.63;4.40;;;9.30;99.90;;;;;;5033734;28;20460;-65
2022/04/12 08:15:39;;;;;;;6.20;4.20;;;9.40;99.90;;;;;;5033704;28;20416;-69
2022/04/12 08:18:05;;;;;;;4.87;4.17;;;9.50;99.90;;;;;;5033518;28;20413;-69
2022/04/12 08:20:31;;;;;;;6.93;4.37;;;9.50;99.90;;;;;;5031958;28;20444;-66
2022/04/12 08:22:57;;;;;;;5.50;4.83;;;9.60;99.90;;;;;;5032593;28;20835;-68
2022/04/12 08:25:23;;;;;;;5.67;4.60;;;9.70;99.90;;;;;;5033923;28;20249;-67
2022/04/12 08:27:49;;;;;;;12.37;4.40;;;9.80;99.90;;;;;;5033819;28;20564;-68
2022/04/12 08:30:15;;;;;;;5.33;4.83;;;9.90;99.90;;;;;;5032975;28;20417;-70
2022/04/12 08:32:44;;;;;;;5.43;3.60;;;10.00;99.90;;;;;;5031204;28;20414;-69
2022/04/12 08:35:10;;;;;;;4.93;4.43;;;10.20;99.90;;;;;;5033869;28;20167;-64
2022/04/12 08:37:35;;;;;;;5.00;4.50;;;10.30;99.90;;;;;;5032382;28;20501;-69
2022/04/12 08:40:02;;;;;;;4.67;4.27;;;10.30;99.90;;;;;;5032798;28;20485;-68
2022/04/12 08:42:28;;;;;;;6.03;5.43;;;10.40;99.90;;;;;;5033547;28;20187;-64
2022/04/12 08:44:54;;;;;;;4.57;3.77;;;10.40;99.90;;;;;;5033503;28;20918;-70
2022/04/12 08:47:22;;;;;;;6.10;4.00;;;10.50;99.90;;;;;;5033357;28;20225;-64
2022/04/12 08:49:48;;;;;;;7.67;4.27;;;10.50;99.90;;;;;;5032849;28;20459;-69
2022/04/12 08:52:14;;;;;;;4.50;4.13;;;10.50;99.90;;;;;;5033236;28;20436;-69
2022/04/12 08:54:42;;;;;;;7.60;4.97;;;10.50;99.90;;;;;;5033264;28;20199;-64
2022/04/12 08:57:08;;;;;;;4.80;4.37;;;10.60;99.90;;;;;;5033382;28;20496;-64
2022/04/12 08:59:35;;;;;;;9.70;4.33;;;10.60;99.90;;;;;;5032632;28;20399;-65
2022/04/12 09:02:00;;;;;;;4.83;4.10;;;10.80;99.90;;;;;;5033162;28;20413;-70
2022/04/12 09:04:27;;;;;;;6.10;3.87;;;10.90;99.90;;;;;;5032250;28;20497;-64
2022/04/12 09:06:55;;;;;;;6.60;4.17;;;11.00;99.90;;;;;;5033404;28;20172;-69
2022/04/12 09:09:26;;;;;;;5.80;4.40;;;10.90;99.90;;;;;;5032606;28;20499;-64
2022/04/12 09:12:03;;;;;;;7.87;5.23;;;10.90;99.90;;;;;;5033136;28;20834;-65
2022/04/12 09:14:43;;;;;;;6.30;5.70;;;11.00;99.90;;;;;;5033019;28;20524;-65
2022/04/12 09:17:15;;;;;;;10.73;5.17;;;11.30;99.90;;;;;;5032127;28;20385;-70
2022/04/12 09:19:40;;;;;;;12.80;5.00;;;11.50;99.90;;;;;;5032462;28;20472;-64
2022/04/12 09:22:14;;;;;;;6.10;3.80;;;11.80;99.90;;;;;;5031700;28;20505;-68
2022/04/12 09:24:50;;;;;;;6.63;4.77;;;12.00;99.90;;;;;;5033025;28;20246;-65
2022/04/12 09:27:35;;;;;;;7.03;4.53;;;12.30;99.90;;;;;;5033123;28;20379;-65
2022/04/12 09:30:12;;;;;;;5.00;4.30;;;12.60;99.90;;;;;;5030961;28;20403;-64
2022/04/12 09:32:48;;;;;;;4.57;4.17;;;13.10;99.90;;;;;;5032720;28;20418;-65
2022/04/12 09:35:14;;;;;;;4.80;4.40;;;13.70;99.90;;;;;;5033098;28;20401;-69
2022/04/12 09:37:44;;;;;;;5.77;5.00;;;14.00;99.90;;;;;;5033083;28;20427;-69
2022/04/12 09:40:17;;;;;;;8.80;4.90;;;14.40;99.90;;;;;;5031123;28;20405;-71
2022/04/12 09:42:43;;;;;;;5.33;4.13;;;14.70;99.90;;;;;;5032872;28;20426;-65
2022/04/12 09:45:14;;;;;;;8.53;5.47;;;15.10;99.90;;;;;;5032951;28;20771;-66
2022/04/12 09:47:42;;;;;;;5.40;4.13;;;15.30;99.90;;;;;;5032810;28;20191;-69
2022/04/12 09:50:09;;;;;;;4.63;3.77;;;15.60;99.90;;;;;;5032358;28;20398;-65
2022/04/12 09:52:35;;;;;;;5.07;4.30;;;15.80;99.90;;;;;;5032607;28;20422;-66
2022/04/12 09:55:01;;;;;;;4.83;4.00;;;16.10;99.90;;;;;;5032883;28;20772;-70
2022/04/12 09:57:26;;;;;;;5.30;3.97;;;16.30;99.90;;;;;;5031658;28;20418;-65
2022/04/12 09:59:57;;;;;;;4.20;3.90;;;16.10;99.90;;;;;;5031915;28;20246;-69
2022/04/12 10:02:24;;;;;;;5.03;4.60;;;16.30;99.90;;;;;;5032619;28;20184;-70
2022/04/12 10:04:52;;;;;;;4.70;4.20;;;16.60;99.90;;;;;;5032632;28;20935;-65
2022/04/12 10:07:21;;;;;;;8.07;4.43;;;16.70;99.90;;;;;;5036200;28;20406;-65
2022/04/12 10:09:51;;;;;;;5.13;4.57;;;16.80;99.90;;;;;;5035626;28;20432;-65
2022/04/12 10:12:17;;;;;;;6.37;4.20;;;16.80;99.90;;;;;;5034988;28;20434;-69
2022/04/12 10:14:46;;;;;;;5.27;3.77;;;16.80;99.90;;;;;;5034665;28;21017;-65
2022/04/12 10:17:13;;;;;;;4.97;4.50;;;16.80;99.90;;;;;;5035929;28;20474;-65
2022/04/12 10:19:40;;;;;;;5.90;4.30;;;17.00;99.90;;;;;;5035637;28;20399;-70
2022/04/12 10:22:07;;;;;;;5.03;4.57;;;17.20;99.90;;;;;;5035942;28;20415;-70
2022/04/12 10:24:34;;;;;;;5.83;4.60;;;17.30;99.90;;;;;;5035831;28;20378;-71
2022/04/12 10:27:00;;;;;;;7.00;4.87;;;17.40;99.90;;;;;;5035724;28;20430;-70
2022/04/12 10:29:26;;;;;;;6.60;4.80;;;17.50;99.90;;;;;;5035219;28;20409;-65
2022/04/12 10:32:03;;;;;;;5.20;4.73;;;17.70;99.90;;;;;;5034578;28;21026;-65
2022/04/12 10:34:29;;;;;;;6.23;5.60;;;17.90;99.90;;;;;;5035858;28;20529;-71
2022/04/12 10:36:55;;;;;;;8.60;5.60;;;18.00;99.90;;;;;;5035807;28;20497;-66
2022/04/12 10:39:55;;;;;;;5.17;4.50;;;18.00;99.90;;;;;;5035087;28;20798;-71
2022/04/12 10:42:26;;;;;;;5.77;5.17;;;17.80;99.30;;;;;;5038691;28;20246;-65
2022/04/12 10:44:55;;;;;;;5.63;4.50;;;17.80;96.70;;;;;;5035611;28;20446;-70
2022/04/12 10:47:40;;;;;;;6.67;5.10;;;17.80;94.90;;;;;;5035599;28;20410;-65
2022/04/12 10:50:13;;;;;;;4.93;4.43;;;17.80;94.90;;;;;;5034926;28;20610;-65
2022/04/12 10:52:42;;;;;;;5.07;4.57;;;17.80;94.90;;;;;;5035382;28;20426;-71
2022/04/12 10:55:12;;;;;;;5.73;5.10;;;17.80;94.90;;;;;;5035337;28;20907;-71
2022/04/12 10:57:38;;;;;;;8.67;4.87;;;17.80;94.90;;;;;;5035444;28;20395;-71
2022/04/12 11:00:15;;;;;;;6.73;5.70;;;17.90;94.90;;;;;;5034559;28;20409;-65
2022/04/12 11:02:46;;;;;;;7.40;5.87;;;17.90;94.90;;;;;;5035224;28;20430;-65
2022/04/12 11:05:33;;;;;;;6.20;5.60;;;17.80;94.90;;;;;;5035056;28;20760;-66
2022/04/12 11:08:19;;;;;;;7.63;6.63;;;17.80;94.90;;;;;;5035136;28;20973;-71
2022/04/12 11:10:51;;;;;;;9.67;6.87;;;17.30;94.70;;;;;;5036830;28;20417;-71
2022/04/12 11:13:20;;;;;;;8.00;7.07;;;16.80;94.50;;;;;;5033635;28;20470;-64
2022/04/12 11:15:55;;;;;;;11.67;6.80;;;16.20;89.20;;;;;;5033858;28;20414;-65
2022/04/12 11:18:21;;;;;;;7.37;6.57;;;15.90;89.40;;;;;;5034913;28;20405;-72
2022/04/12 11:21:00;;;;;;;7.73;6.93;;;15.50;84.00;;;;;;5034337;28;20429;-71
2022/04/12 11:23:49;;;;;;;9.43;7.80;;;15.40;84.50;;;;;;5034628;28;20468;-71
2022/04/12 11:26:44;;;;;;;8.10;6.27;;;15.20;84.00;;;;;;5035059;28;20463;-65
2022/04/12 11:29:12;;;;;;;10.67;7.67;;;15.20;87.00;;;;;;5034060;28;20419;-69
2022/04/12 11:31:47;;;;;;;10.33;6.90;;;15.10;87.50;;;;;;5034674;28;20409;-65
2022/04/12 11:34:14;;;;;;;7.70;6.70;;;14.90;88.90;;;;;;5034771;28;20944;-70
2022/04/12 11:36:44;;;;;;;8.07;7.20;;;14.80;89.10;;;;;;5033441;28;20423;-70
2022/04/12 11:39:10;;;;;;;8.53;7.23;;;14.70;93.30;;;;;;5033922;28;20390;-65
2022/04/12 11:41:36;;;;;;;10.20;8.07;;;14.70;93.80;;;;;;5034501;28;20753;-64
2022/04/12 11:44:04;;;;;;;10.50;7.63;;;14.60;90.00;;;;;;5033518;28;20524;-66
2022/04/12 11:46:33;;;;;;;9.00;6.53;;;14.80;93.80;;;;;;5033423;28;20180;-70
2022/04/12 11:49:32;;;;;;;9.23;7.40;;;15.00;93.80;;;;;;5033769;28;20381;-64
2022/04/12 11:52:03;;;;;;;8.93;6.50;;;15.40;94.00;;;;;;5034156;28;20439;-65
2022/04/12 11:54:31;;;;;;;9.27;7.43;;;15.90;94.20;;;;;;5034190;28;20542;-65
2022/04/12 11:57:12;;;;;;;8.30;6.80;;;16.10;94.30;;;;;;5034309;28;20365;-71
2022/04/12 11:59:48;;;;;;;10.97;7.50;;;16.40;94.40;;;;;;5033424;28;20410;-70
2022/04/12 12:02:15;;;;;;;10.87;6.33;;;17.20;95.80;;;;;;5034132;28;20442;-70
2022/04/12 12:04:49;;;;;;;7.33;6.53;;;17.70;94.90;;;;;;5034141;28;20481;-65
2022/04/12 12:07:16;;;;;;;8.73;6.77;;;18.20;95.00;;;;;;5034102;28;20952;-70
2022/04/12 12:09:54;;;;;;;11.47;6.60;;;18.70;95.30;;;;;;5033207;28;20434;-70
2022/04/12 12:12:20;;;;;;;14.47;7.40;;;18.90;95.30;;;;;;5032584;28;21021;-65
2022/04/12 12:14:46;;;;;;;8.40;6.70;;;18.40;93.20;;;;;;5032553;28;20462;-71
2022/04/12 12:17:20;;;;;;;13.23;7.87;;;17.90;91.40;;;;;;5033921;28;20733;-65
2022/04/12 12:19:47;;;;;;;7.77;6.97;;;17.70;91.30;;;;;;5033113;28;20181;-65
2022/04/12 12:22:14;;;;;;;8.30;6.67;;;17.30;91.00;;;;;;5033897;28;20914;-65
2022/04/12 12:24:56;;;;;;;11.10;7.07;;;17.30;90.20;;;;;;5033863;28;20420;-70
2022/04/12 12:27:34;;;;;;;8.00;6.80;;;17.50;94.80;;;;;;5033928;28;20398;-70
2022/04/12 12:30:00;;;;;;;7.60;6.77;;;17.70;94.60;;;;;;5032659;28;20398;-65
2022/04/12 12:32:33;;;;;;;13.17;7.77;;;17.80;93.60;;;;;;5033611;28;20505;-66
2022/04/12 12:35:10;;;;;;;9.60;6.93;;;18.10;95.00;;;;;;5032386;28;20221;-70
2022/04/12 12:37:36;;;;;;;8.90;6.97;;;18.40;92.70;;;;;;5033616;28;20391;-70
2022/04/12 12:40:15;;;;;;;8.17;6.20;;;18.90;95.30;;;;;;5032848;28;20402;-70
2022/04/12 12:42:42;;;;;;;8.63;6.80;;;19.80;95.60;;;;;;5033614;28;20468;-70
2022/04/12 12:45:12;;;;;;;12.67;7.03;;;20.30;93.90;;;;;;5033508;28;20398;-70
2022/04/12 12:51:05;;;;;;;11.33;7.50;;;21.20;91.20;;;;;;5049018;28;20400;-66
2022/04/12 12:53:31;;;;;;;11.53;7.40;;;22.10;92.20;;;;;;5033231;28;20541;-70
2022/04/12 12:55:57;;;;;;;9.37;6.43;;;22.50;88.60;;;;;;5031939;28;20637;-69
2022/04/12 12:58:29;;;;;;;8.93;6.40;;;22.40;83.00;;;;;;5033305;28;20174;-66
2022/04/12 13:01:02;;;;;;;6.30;5.70;;;21.90;77.70;;;;;;5033425;28;20410;-70